Terminal Aerodrome Forecast
Issued by NWS Cleveland, OH

Home | Current Version | Previous Version | Graphics & Text | Print | Product List | Glossary On
Versions: 1 2 3 4 5 6 7 8 9 10 11 12 13
364
FTUS41 KCLE 221912 AAA
TAFMFD
TAF AMD
KMFD 221912Z 2219/2318 01014KT P6SM SCT045
     FM230000 36004KT P6SM FEW250
     FM231500 34006KT P6SM SCT035=

USA.gov is the U.S. government's official web portal to all federal, state and local government web resources and services.